Time;durP1;ratioP1;P1;durP2;ratioP2;P2;SDS_P1;SDS_P2;PMS_P1;PMS_P2;Temp;Humidity;BMP_temperature;BMP_pressure;BME280_temperature;BME280_humidity;BME280_pressure;Samples;Min_cycle;Max_cycle;Signal;HPM_P1;HPM_P2
2021/07/20 00:01:24;;;;;;;11.15;4.72;;;16.80;99.90;;;;;;1912171;74;21596;-68
2021/07/20 00:03:52;;;;;;;9.53;4.33;;;16.90;99.90;;;;;;1909883;74;21059;-68
2021/07/20 00:06:19;;;;;;;12.75;5.40;;;16.80;99.90;;;;;;1922583;74;21163;-68
2021/07/20 00:08:47;;;;;;;8.45;4.50;;;16.90;99.90;;;;;;1905453;74;21172;-68
2021/07/20 00:11:14;;;;;;;12.95;4.40;;;16.90;99.90;;;;;;1917728;74;21084;-66
2021/07/20 00:13:42;;;;;;;8.60;4.90;;;16.90;99.90;;;;;;1918273;73;21153;-68
2021/07/20 00:16:10;;;;;;;11.65;5.90;;;17.00;99.90;;;;;;1908643;74;21147;-68
2021/07/20 00:18:38;;;;;;;13.53;5.55;;;17.00;99.90;;;;;;1892403;74;21090;-66
2021/07/20 00:21:07;;;;;;;14.07;6.12;;;17.10;99.90;;;;;;1910112;74;21190;-66
2021/07/20 00:23:36;;;;;;;15.20;5.75;;;17.10;99.90;;;;;;1911962;74;21064;-66
2021/07/20 00:26:06;;;;;;;11.30;5.08;;;17.00;99.90;;;;;;1913269;74;21063;-65
2021/07/20 00:28:33;;;;;;;9.43;4.85;;;16.90;99.90;;;;;;1902633;74;21400;-65
2021/07/20 00:31:01;;;;;;;12.85;5.53;;;16.80;99.90;;;;;;1903434;74;21531;-66
2021/07/20 00:33:28;;;;;;;12.43;5.03;;;16.80;99.90;;;;;;1899780;75;21533;-67
2021/07/20 00:35:56;;;;;;;13.00;5.62;;;16.70;99.90;;;;;;1907485;74;21105;-67
2021/07/20 00:38:26;;;;;;;9.78;4.60;;;16.70;99.90;;;;;;1902601;74;21095;-66
2021/07/20 00:40:54;;;;;;;14.98;5.70;;;16.70;99.90;;;;;;1904167;75;21130;-66
2021/07/20 00:43:21;;;;;;;11.48;5.03;;;16.70;99.90;;;;;;1903690;74;21071;-67
2021/07/20 00:45:49;;;;;;;13.90;4.50;;;16.80;99.90;;;;;;1904637;74;21038;-68
2021/07/20 00:48:16;;;;;;;13.03;5.05;;;16.80;99.90;;;;;;1904458;74;21112;-67
2021/07/20 00:50:46;;;;;;;10.88;4.42;;;16.90;99.90;;;;;;1916700;74;21101;-66
2021/07/20 00:53:14;;;;;;;12.30;4.62;;;16.80;99.90;;;;;;1918838;74;21073;-65
2021/07/20 00:55:42;;;;;;;7.83;4.22;;;16.80;99.90;;;;;;1899617;74;21139;-66
2021/07/20 00:58:11;;;;;;;9.13;4.60;;;16.80;99.90;;;;;;1912726;74;21094;-66
2021/07/20 01:00:39;;;;;;;10.88;4.83;;;16.80;99.90;;;;;;1900544;74;21131;-67
2021/07/20 01:03:07;;;;;;;10.40;4.87;;;16.80;99.90;;;;;;1909380;74;21093;-66
2021/07/20 01:05:36;;;;;;;10.28;4.47;;;16.70;99.90;;;;;;1898065;74;21573;-67
2021/07/20 01:08:06;;;;;;;10.72;4.12;;;16.80;99.90;;;;;;1903387;75;21691;-66
2021/07/20 01:10:35;;;;;;;9.75;4.40;;;16.80;99.90;;;;;;1904017;75;21129;-66
2021/07/20 01:13:03;;;;;;;10.48;4.50;;;16.70;99.90;;;;;;1901016;74;21167;-66
2021/07/20 01:15:31;;;;;;;9.78;5.20;;;16.70;99.90;;;;;;1904802;75;21606;-66
2021/07/20 01:18:01;;;;;;;12.58;4.95;;;16.70;99.90;;;;;;1909893;74;21107;-67
2021/07/20 01:20:31;;;;;;;12.63;5.10;;;16.70;99.90;;;;;;1927188;73;21221;-66
2021/07/20 01:23:09;;;;;;;9.70;5.40;;;16.60;99.90;;;;;;1916860;74;21051;-66
2021/07/20 01:25:38;;;;;;;9.08;4.47;;;16.70;99.90;;;;;;1909364;74;21079;-67
2021/07/20 01:28:08;;;;;;;9.45;4.87;;;16.70;99.90;;;;;;1915869;74;21006;-68
2021/07/20 01:30:39;;;;;;;15.10;4.90;;;16.70;99.90;;;;;;1907894;74;21133;-67
2021/07/20 01:33:08;;;;;;;8.93;4.92;;;16.70;99.90;;;;;;1900859;75;21030;-65
2021/07/20 01:35:36;;;;;;;10.35;5.15;;;16.60;99.90;;;;;;1910410;75;21035;-67
2021/07/20 01:38:08;;;;;;;10.43;5.08;;;16.60;99.90;;;;;;1900555;74;21012;-67
2021/07/20 01:40:35;;;;;;;13.80;5.62;;;16.70;99.90;;;;;;1900505;74;21037;-68
2021/07/20 01:43:05;;;;;;;13.40;6.05;;;16.70;99.90;;;;;;1904136;74;21476;-68
2021/07/20 01:45:35;;;;;;;12.75;5.50;;;16.70;99.90;;;;;;1900673;75;21489;-67
2021/07/20 01:48:05;;;;;;;10.63;5.65;;;16.70;99.90;;;;;;1920412;74;21014;-68
2021/07/20 01:50:35;;;;;;;11.22;5.83;;;16.70;99.90;;;;;;1895376;75;21124;-68
2021/07/20 01:53:03;;;;;;;10.88;5.62;;;16.90;99.90;;;;;;1912361;75;21031;-69
2021/07/20 01:55:31;;;;;;;11.43;5.50;;;16.80;99.90;;;;;;1917073;74;21017;-68
2021/07/20 01:58:00;;;;;;;8.40;5.20;;;16.70;99.90;;;;;;1923767;74;21014;-69
2021/07/20 02:00:27;;;;;;;11.15;5.75;;;16.60;99.90;;;;;;1910681;74;21058;-69
2021/07/20 02:03:15;;;;;;;12.05;5.58;;;16.60;99.90;;;;;;1920133;74;21094;-69
2021/07/20 02:08:30;;;;;;;9.90;5.22;;;16.60;99.90;;;;;;1888094;75;21087;-69
2021/07/20 02:11:00;;;;;;;10.15;5.58;;;16.50;99.90;;;;;;1905392;74;21109;-69
2021/07/20 02:13:38;;;;;;;10.68;5.62;;;16.50;99.90;;;;;;1915655;74;21469;-68
2021/07/20 02:16:00;;;;;;;9.33;5.53;;;16.60;99.90;;;;;;1904439;74;21516;-69
2021/07/20 02:18:30;;;;;;;10.35;5.95;;;16.70;99.90;;;;;;1902384;74;21118;-68
2021/07/20 02:21:01;;;;;;;11.78;5.40;;;16.60;99.90;;;;;;1901363;74;21082;-69
2021/07/20 02:23:30;;;;;;;12.93;5.85;;;16.60;99.90;;;;;;1903638;74;21616;-68
2021/07/20 02:25:59;;;;;;;12.20;5.95;;;16.70;99.90;;;;;;1923985;74;21411;-69
2021/07/20 02:28:28;;;;;;;11.03;5.62;;;16.70;99.90;;;;;;1907329;74;21061;-69
2021/07/20 02:30:58;;;;;;;9.98;5.87;;;16.70;99.90;;;;;;1920563;74;21574;-70
2021/07/20 02:33:26;;;;;;;10.88;5.40;;;16.80;99.90;;;;;;1914304;74;21175;-69
2021/07/20 02:35:54;;;;;;;13.72;5.60;;;16.80;99.90;;;;;;1905460;75;21120;-69
2021/07/20 02:38:23;;;;;;;13.08;5.70;;;16.80;99.90;;;;;;1907513;74;21041;-68
2021/07/20 02:40:52;;;;;;;11.43;5.65;;;16.70;99.90;;;;;;1917402;73;21097;-68
2021/07/20 02:43:20;;;;;;;10.28;5.00;;;16.70;99.90;;;;;;1908782;75;21634;-67
2021/07/20 02:45:49;;;;;;;13.05;5.40;;;16.70;99.90;;;;;;1904748;74;21090;-67
2021/07/20 02:48:19;;;;;;;13.10;5.50;;;16.70;99.90;;;;;;1902867;75;21547;-67
2021/07/20 02:50:47;;;;;;;9.68;5.67;;;16.70;99.90;;;;;;1908371;75;21056;-67
2021/07/20 02:53:15;;;;;;;11.90;5.42;;;16.80;99.90;;;;;;1921821;74;21167;-68
2021/07/20 02:56:04;;;;;;;8.68;5.22;;;16.80;99.90;;;;;;1912695;74;21071;-69
2021/07/20 02:58:32;;;;;;;9.58;4.85;;;16.80;99.90;;;;;;1864507;75;21101;-68
2021/07/20 03:01:01;;;;;;;11.50;5.58;;;16.80;99.90;;;;;;1928296;73;21129;-67
2021/07/20 03:03:29;;;;;;;9.98;5.08;;;16.90;99.90;;;;;;1927499;73;21041;-67
2021/07/20 03:05:59;;;;;;;10.98;5.42;;;16.90;99.90;;;;;;1944804;73;21037;-66
2021/07/20 03:08:28;;;;;;;9.70;5.35;;;16.80;99.90;;;;;;1930763;73;21018;-68
2021/07/20 03:11:02;;;;;;;7.65;5.03;;;16.80;99.90;;;;;;1928331;73;21124;-68
2021/07/20 03:13:31;;;;;;;11.55;4.90;;;16.80;99.90;;;;;;1928426;73;21054;-68
2021/07/20 03:16:01;;;;;;;11.28;5.05;;;16.80;99.90;;;;;;1929192;74;21186;-68
2021/07/20 03:18:31;;;;;;;11.63;5.00;;;16.80;99.90;;;;;;1926799;73;21551;-68
2021/07/20 03:21:00;;;;;;;15.58;5.20;;;16.70;99.90;;;;;;1936638;73;21147;-68
2021/07/20 03:23:28;;;;;;;9.48;5.00;;;16.70;99.90;;;;;;1941959;73;21576;-68
2021/07/20 03:25:58;;;;;;;10.20;5.03;;;16.70;99.90;;;;;;1930854;73;21089;-68
2021/07/20 03:28:27;;;;;;;7.87;5.03;;;16.70;99.90;;;;;;1927648;73;21101;-67
2021/07/20 03:30:56;;;;;;;10.32;4.78;;;16.80;99.90;;;;;;1927443;73;21155;-67
2021/07/20 03:33:25;;;;;;;10.95;4.95;;;16.70;99.90;;;;;;1930608;73;21021;-66
2021/07/20 03:35:53;;;;;;;9.35;4.90;;;16.70;99.90;;;;;;1937852;73;21159;-67
2021/07/20 03:38:22;;;;;;;8.75;4.15;;;16.70;99.90;;;;;;1946925;73;21582;-68
2021/07/20 03:40:52;;;;;;;12.37;4.55;;;16.80;99.90;;;;;;1929890;73;21179;-68
2021/07/20 03:43:23;;;;;;;8.45;4.15;;;16.70;99.90;;;;;;1932329;73;21014;-68
2021/07/20 03:45:51;;;;;;;9.15;4.15;;;16.70;99.90;;;;;;1926681;73;21747;-67
2021/07/20 03:48:20;;;;;;;8.10;4.60;;;16.70;99.90;;;;;;1929896;73;21104;-68
2021/07/20 03:50:50;;;;;;;9.48;4.25;;;16.70;99.90;;;;;;1932784;73;21081;-73
2021/07/20 03:53:18;;;;;;;7.45;3.98;;;16.70;99.90;;;;;;1941391;73;21107;-69
2021/07/20 03:55:57;;;;;;;9.55;4.53;;;16.70;99.90;;;;;;1939176;73;21131;-70
2021/07/20 03:58:25;;;;;;;8.70;4.12;;;16.70;99.90;;;;;;1938833;73;21042;-70
2021/07/20 04:00:55;;;;;;;9.80;4.72;;;16.80;99.90;;;;;;1914293;74;21665;-71
2021/07/20 04:03:25;;;;;;;8.40;4.35;;;16.80;99.90;;;;;;1905807;74;21515;-72
2021/07/20 04:06:01;;;;;;;10.43;4.42;;;16.70;99.90;;;;;;1904398;74;21080;-70
2021/07/20 04:08:29;;;;;;;10.18;4.42;;;16.70;99.90;;;;;;1905519;74;21033;-69
2021/07/20 04:10:58;;;;;;;8.80;4.15;;;16.80;99.90;;;;;;1883661;74;21077;-70
2021/07/20 04:13:27;;;;;;;9.05;4.17;;;16.80;99.90;;;;;;1869150;74;21203;-70
2021/07/20 04:15:57;;;;;;;9.83;4.20;;;16.90;99.90;;;;;;1882537;74;21085;-70
2021/07/20 04:18:26;;;;;;;10.32;4.00;;;16.90;99.90;;;;;;1871668;74;21105;-69
2021/07/20 04:20:54;;;;;;;8.88;3.77;;;16.90;99.90;;;;;;1887441;74;21133;-69
2021/07/20 04:23:23;;;;;;;11.05;5.00;;;16.90;99.90;;;;;;1882305;74;21046;-70
2021/07/20 04:25:53;;;;;;;9.80;4.25;;;16.90;99.90;;;;;;1882619;74;21166;-67
2021/07/20 04:28:22;;;;;;;6.85;4.03;;;16.90;99.90;;;;;;1882371;74;21230;-69
2021/07/20 04:30:52;;;;;;;9.00;4.10;;;16.80;99.90;;;;;;1882443;75;21115;-70
2021/07/20 04:33:27;;;;;;;9.40;4.12;;;16.80;99.90;;;;;;1882064;74;21058;-69
2021/07/20 04:35:57;;;;;;;8.55;4.12;;;16.80;99.90;;;;;;1883423;75;21566;-69
2021/07/20 04:38:26;;;;;;;7.65;4.22;;;16.80;99.90;;;;;;1881529;74;21116;-70
2021/07/20 04:40:54;;;;;;;11.03;4.53;;;16.80;99.90;;;;;;1883018;74;21124;-71
2021/07/20 04:43:22;;;;;;;9.48;4.00;;;16.80;99.90;;;;;;1882895;74;21131;-69
2021/07/20 04:45:53;;;;;;;8.98;4.33;;;16.80;99.90;;;;;;1886981;76;21519;-69
2021/07/20 04:48:20;;;;;;;11.65;4.25;;;16.80;99.90;;;;;;1883020;74;21085;-71
2021/07/20 04:50:50;;;;;;;7.65;3.83;;;16.80;99.90;;;;;;1889464;74;21098;-71
2021/07/20 04:53:19;;;;;;;11.38;4.28;;;16.90;99.90;;;;;;1883263;74;21045;-69
2021/07/20 04:55:49;;;;;;;10.53;4.03;;;16.90;99.90;;;;;;1882756;76;21294;-71
2021/07/20 04:58:17;;;;;;;10.15;3.62;;;16.80;99.90;;;;;;1882317;74;21078;-69
2021/07/20 05:00:53;;;;;;;11.25;3.90;;;16.90;99.90;;;;;;1883461;73;22202;-71
2021/07/20 05:03:24;;;;;;;9.28;3.87;;;16.90;99.90;;;;;;1890564;74;21208;-71
2021/07/20 05:05:54;;;;;;;6.75;3.98;;;16.90;99.90;;;;;;1882866;74;21229;-70
2021/07/20 05:08:23;;;;;;;5.95;4.00;;;16.90;99.90;;;;;;1885025;74;21586;-69
2021/07/20 05:10:55;;;;;;;7.22;3.90;;;16.90;99.90;;;;;;1883118;74;21222;-71
2021/07/20 05:13:24;;;;;;;7.90;4.35;;;16.90;99.90;;;;;;1885767;74;21207;-70
2021/07/20 05:15:54;;;;;;;11.10;4.05;;;16.90;99.90;;;;;;1884828;74;21559;-70
2021/07/20 05:18:23;;;;;;;11.45;4.72;;;17.00;99.90;;;;;;1891556;74;21073;-69
2021/07/20 05:20:53;;;;;;;10.60;3.95;;;17.00;99.90;;;;;;1877597;74;21137;-69
2021/07/20 05:23:21;;;;;;;9.40;4.12;;;17.00;99.90;;;;;;1884983;74;22177;-69
2021/07/20 05:25:55;;;;;;;9.68;4.45;;;16.90;99.90;;;;;;1883989;74;21174;-69
2021/07/20 05:28:25;;;;;;;7.65;4.10;;;16.90;99.90;;;;;;1884647;74;21093;-69
2021/07/20 05:31:01;;;;;;;9.73;4.35;;;17.00;99.90;;;;;;1880417;75;21132;-69
2021/07/20 05:33:29;;;;;;;7.67;4.70;;;17.10;99.90;;;;;;1883337;74;21159;-69
2021/07/20 05:35:59;;;;;;;9.90;5.00;;;17.20;99.90;;;;;;1886316;74;21563;-69
2021/07/20 05:38:28;;;;;;;13.62;4.00;;;17.20;99.90;;;;;;1887141;76;21154;-69
2021/07/20 05:40:58;;;;;;;10.68;4.12;;;17.20;99.90;;;;;;1887137;74;21101;-69
2021/07/20 05:43:27;;;;;;;14.78;4.85;;;17.20;99.90;;;;;;1885891;74;21089;-70
2021/07/20 05:45:56;;;;;;;8.05;4.35;;;17.20;99.90;;;;;;1882584;74;21100;-69
2021/07/20 05:48:25;;;;;;;10.58;5.00;;;17.20;99.90;;;;;;1884955;74;21029;-69
2021/07/20 05:50:54;;;;;;;9.70;4.47;;;17.20;99.90;;;;;;1883805;74;21517;-70
2021/07/20 05:53:28;;;;;;;9.98;5.00;;;17.20;99.90;;;;;;1886848;74;21586;-69
2021/07/20 05:56:03;;;;;;;10.50;5.30;;;17.20;99.90;;;;;;1885668;74;21097;-68
2021/07/20 05:58:32;;;;;;;9.83;4.42;;;17.20;99.90;;;;;;1894857;74;21172;-69
2021/07/20 06:01:01;;;;;;;12.55;5.40;;;17.20;99.90;;;;;;1883859;74;21043;-70
2021/07/20 06:03:32;;;;;;;8.73;4.45;;;17.20;99.90;;;;;;1883008;74;21046;-68
2021/07/20 06:06:00;;;;;;;15.20;4.97;;;17.20;99.90;;;;;;1891859;74;21018;-69
2021/07/20 06:08:29;;;;;;;9.43;5.03;;;17.20;99.90;;;;;;1895393;74;21044;-70
2021/07/20 06:10:59;;;;;;;10.55;4.87;;;17.30;99.90;;;;;;1901518;75;21587;-69
2021/07/20 06:13:29;;;;;;;10.18;4.75;;;17.30;99.90;;;;;;1885335;75;21154;-68
2021/07/20 06:15:57;;;;;;;13.08;5.35;;;17.30;99.90;;;;;;1891981;74;21541;-70
2021/07/20 06:18:25;;;;;;;7.45;4.75;;;17.30;99.90;;;;;;1885767;75;21175;-69
2021/07/20 06:20:58;;;;;;;9.50;4.90;;;17.30;99.90;;;;;;1883999;74;21091;-69
2021/07/20 06:23:28;;;;;;;9.45;4.80;;;17.30;99.90;;;;;;1881719;74;21093;-68
2021/07/20 06:25:57;;;;;;;10.23;4.92;;;17.30;99.90;;;;;;1881927;74;21093;-71
2021/07/20 06:28:27;;;;;;;9.58;5.15;;;17.40;99.90;;;;;;1882825;74;21194;-68
2021/07/20 06:30:55;;;;;;;11.55;4.65;;;17.40;99.90;;;;;;1883974;74;21117;-68
2021/07/20 06:33:23;;;;;;;11.43;5.08;;;17.40;99.90;;;;;;1887524;74;21082;-68
2021/07/20 06:35:51;;;;;;;9.15;4.50;;;17.40;99.90;;;;;;1883973;75;21135;-71
2021/07/20 06:38:21;;;;;;;7.53;4.50;;;17.50;99.90;;;;;;1883457;74;21517;-70
2021/07/20 06:40:51;;;;;;;11.70;4.83;;;17.50;99.90;;;;;;1872301;74;21607;-71
2021/07/20 06:43:19;;;;;;;9.68;5.05;;;17.50;99.90;;;;;;1884332;74;21120;-69
2021/07/20 06:45:48;;;;;;;9.65;5.05;;;17.60;99.90;;;;;;1884540;74;21085;-70
2021/07/20 06:48:19;;;;;;;12.47;5.00;;;17.60;99.90;;;;;;1884800;74;21136;-70
2021/07/20 06:50:52;;;;;;;8.25;4.83;;;17.60;99.90;;;;;;1880993;74;21168;-67
2021/07/20 06:53:20;;;;;;;11.38;4.90;;;17.60;99.90;;;;;;1882009;75;21124;-69
2021/07/20 06:56:00;;;;;;;11.10;5.05;;;17.60;99.90;;;;;;1883294;75;21156;-69
2021/07/20 06:58:29;;;;;;;7.83;4.53;;;17.60;99.90;;;;;;1880734;74;21211;-68
2021/07/20 07:00:59;;;;;;;8.28;4.60;;;17.60;99.90;;;;;;1879052;74;21118;-69
2021/07/20 07:03:30;;;;;;;12.20;5.17;;;17.60;99.90;;;;;;1882057;75;21634;-68
2021/07/20 07:06:00;;;;;;;9.83;5.20;;;17.60;99.90;;;;;;1882545;74;21573;-67
2021/07/20 07:08:28;;;;;;;8.35;4.65;;;17.60;99.90;;;;;;1881874;75;21137;-68
2021/07/20 07:10:58;;;;;;;10.38;4.85;;;17.60;99.90;;;;;;1881199;74;21062;-68
2021/07/20 07:13:29;;;;;;;9.38;4.87;;;17.60;99.90;;;;;;1883094;75;21581;-67
2021/07/20 07:15:58;;;;;;;10.25;4.75;;;17.70;99.90;;;;;;1884233;74;21186;-71
2021/07/20 07:18:26;;;;;;;9.03;4.30;;;17.70;99.90;;;;;;1882732;74;21148;-67
2021/07/20 07:20:56;;;;;;;10.53;5.12;;;17.70;99.90;;;;;;1883253;75;21609;-68
2021/07/20 07:23:26;;;;;;;9.73;4.87;;;17.70;99.90;;;;;;1883406;75;21179;-68
2021/07/20 07:25:57;;;;;;;8.75;4.90;;;17.80;99.90;;;;;;1884479;75;21564;-68
2021/07/20 07:28:24;;;;;;;12.68;4.90;;;17.80;99.90;;;;;;1881985;74;21500;-68
2021/07/20 07:30:54;;;;;;;9.05;4.67;;;17.80;99.90;;;;;;1882360;75;21152;-68
2021/07/20 07:33:23;;;;;;;7.15;4.62;;;17.80;99.90;;;;;;1883403;75;21093;-68
2021/07/20 07:35:51;;;;;;;9.38;4.70;;;17.80;99.90;;;;;;1888624;74;21046;-67
2021/07/20 07:38:20;;;;;;;12.28;5.12;;;17.80;99.90;;;;;;1893542;75;21178;-69
2021/07/20 07:40:50;;;;;;;12.95;4.47;;;17.90;99.90;;;;;;1894613;74;21133;-68
2021/07/20 07:43:19;;;;;;;11.57;4.90;;;17.90;99.90;;;;;;1895847;74;21127;-68
2021/07/20 07:45:49;;;;;;;10.65;4.85;;;18.00;99.90;;;;;;1896458;74;21104;-68
2021/07/20 07:48:17;;;;;;;9.43;5.03;;;18.00;99.90;;;;;;1897744;75;21144;-69
2021/07/20 07:50:45;;;;;;;11.15;4.75;;;18.00;99.90;;;;;;1885175;75;21191;-67
2021/07/20 07:53:14;;;;;;;11.73;4.50;;;18.10;99.90;;;;;;1890567;74;21492;-69
2021/07/20 07:55:42;;;;;;;9.68;4.78;;;18.10;99.90;;;;;;1907307;74;21090;-69
2021/07/20 07:58:16;;;;;;;8.00;4.45;;;18.20;99.90;;;;;;1885517;76;21062;-68
2021/07/20 08:00:46;;;;;;;10.08;4.33;;;18.20;99.90;;;;;;1894153;74;21091;-68
2021/07/20 08:03:16;;;;;;;11.65;4.42;;;18.10;99.90;;;;;;1888386;75;21046;-68
2021/07/20 08:05:49;;;;;;;11.70;4.47;;;18.20;99.90;;;;;;1890359;75;21046;-68
2021/07/20 08:08:18;;;;;;;7.90;4.72;;;18.40;99.90;;;;;;1889767;75;21509;-69
2021/07/20 08:10:47;;;;;;;7.22;4.42;;;18.50;99.90;;;;;;1892521;75;21051;-69
2021/07/20 08:13:16;;;;;;;7.53;4.17;;;18.50;99.90;;;;;;1904945;75;21490;-68
2021/07/20 08:15:47;;;;;;;7.75;4.90;;;18.50;99.90;;;;;;1902469;75;21090;-68
2021/07/20 08:18:14;;;;;;;10.90;4.97;;;18.50;99.90;;;;;;1903481;74;21029;-69
2021/07/20 08:20:44;;;;;;;11.30;5.05;;;18.50;99.90;;;;;;1889917;75;21129;-67
2021/07/20 08:23:12;;;;;;;10.25;5.25;;;18.60;99.90;;;;;;1899877;75;21151;-68
2021/07/20 08:25:42;;;;;;;10.15;5.42;;;18.60;99.90;;;;;;1904917;75;21120;-68
2021/07/20 08:28:21;;;;;;;8.08;4.87;;;18.60;99.90;;;;;;1894611;75;21100;-68
2021/07/20 08:30:50;;;;;;;8.93;5.15;;;18.70;99.90;;;;;;1905034;75;21078;-68
2021/07/20 08:33:23;;;;;;;8.73;4.70;;;18.70;99.90;;;;;;1890339;75;21086;-68
2021/07/20 08:35:54;;;;;;;7.92;4.87;;;18.70;99.90;;;;;;1888267;75;21035;-69
2021/07/20 08:38:22;;;;;;;10.55;5.50;;;18.80;99.90;;;;;;1892581;75;21085;-68
2021/07/20 08:40:53;;;;;;;11.65;5.15;;;18.90;99.90;;;;;;1892895;73;21171;-68
2021/07/20 08:43:43;;;;;;;8.90;4.97;;;18.80;99.90;;;;;;1896012;75;21067;-68
2021/07/20 08:46:31;;;;;;;8.88;5.25;;;18.70;99.90;;;;;;1912921;74;21207;-68
2021/07/20 08:49:13;;;;;;;10.72;4.85;;;18.70;99.90;;;;;;1901379;75;21168;-67
2021/07/20 08:52:02;;;;;;;11.20;5.40;;;18.60;99.90;;;;;;1888888;76;21037;-68
2021/07/20 08:54:41;;;;;;;10.75;5.97;;;18.60;99.90;;;;;;1893428;75;21085;-67
2021/07/20 08:57:12;;;;;;;10.00;5.65;;;18.50;99.90;;;;;;1887978;75;21134;-67
2021/07/20 08:59:55;;;;;;;8.08;5.15;;;18.50;99.90;;;;;;1893972;74;21360;-68
2021/07/20 09:02:25;;;;;;;10.45;5.70;;;18.40;99.90;;;;;;1881614;75;21148;-67
2021/07/20 09:04:59;;;;;;;14.00;5.58;;;18.40;99.90;;;;;;1874876;76;21061;-67
2021/07/20 09:07:29;;;;;;;10.70;5.40;;;18.40;99.90;;;;;;1886537;75;21074;-68
2021/07/20 09:09:59;;;;;;;10.38;5.53;;;18.40;99.90;;;;;;1890677;74;21142;-68
2021/07/20 09:12:34;;;;;;;8.75;4.90;;;18.40;99.90;;;;;;1884260;74;21101;-69
2021/07/20 09:15:20;;;;;;;8.95;5.37;;;18.40;99.90;;;;;;1895230;74;21105;-68
2021/07/20 09:18:09;;;;;;;12.05;5.67;;;18.70;99.90;;;;;;1894975;74;21166;-68
2021/07/20 09:20:40;;;;;;;9.65;5.95;;;19.10;99.90;;;;;;1886802;74;21242;-67
2021/07/20 09:23:17;;;;;;;11.75;5.87;;;19.50;99.90;;;;;;1883194;74;21573;-68
2021/07/20 09:25:53;;;;;;;9.03;6.17;;;19.60;99.90;;;;;;1883885;74;21096;-68
2021/07/20 09:28:30;;;;;;;8.13;6.12;;;19.60;99.90;;;;;;1881081;74;21578;-68
2021/07/20 09:30:59;;;;;;;11.53;6.12;;;19.50;99.90;;;;;;1900307;73;21202;-68
2021/07/20 09:33:48;;;;;;;13.08;6.08;;;19.60;99.90;;;;;;1893432;74;21149;-68
2021/07/20 09:36:34;;;;;;;11.05;6.15;;;19.50;99.90;;;;;;1882345;74;21158;-68
2021/07/20 09:39:05;;;;;;;12.95;6.83;;;19.70;99.90;;;;;;1882719;74;21148;-68
2021/07/20 09:41:54;;;;;;;14.05;6.75;;;20.00;99.90;;;;;;1878659;74;21121;-69
2021/07/20 09:44:40;;;;;;;9.53;6.33;;;20.10;99.90;;;;;;1881247;74;21166;-69
2021/07/20 09:47:26;;;;;;;10.48;6.17;;;20.10;99.90;;;;;;1892887;74;21144;-68
2021/07/20 09:50:11;;;;;;;9.75;6.15;;;20.20;99.90;;;;;;1883357;72;21148;-68
2021/07/20 09:52:42;;;;;;;9.78;6.37;;;20.30;99.90;;;;;;1862200;75;21136;-67
2021/07/20 09:55:22;;;;;;;8.48;5.60;;;20.20;99.90;;;;;;1867971;76;21090;-67
2021/07/20 09:58:22;;;;;;;9.48;6.15;;;20.30;99.90;;;;;;1867178;75;21069;-67
2021/07/20 10:00:52;;;;;;;8.45;6.00;;;20.50;99.90;;;;;;1884313;75;21214;-67
2021/07/20 10:03:25;;;;;;;9.53;6.20;;;20.60;99.90;;;;;;1904962;74;21152;-66
2021/07/20 10:06:13;;;;;;;10.68;5.92;;;20.70;99.90;;;;;;1897916;75;21555;-66
2021/07/20 10:08:49;;;;;;;10.20;6.50;;;20.90;99.90;;;;;;1907237;75;21136;-66
2021/07/20 10:11:32;;;;;;;14.55;6.37;;;20.90;99.90;;;;;;1907663;73;21113;-67
2021/07/20 10:14:08;;;;;;;10.53;6.03;;;20.80;99.90;;;;;;1891816;74;21157;-67
2021/07/20 10:17:12;;;;;;;9.13;6.33;;;20.90;99.90;;;;;;1882054;75;21042;-66
2021/07/20 10:19:58;;;;;;;12.58;6.15;;;21.00;99.90;;;;;;1908569;75;21548;-68
2021/07/20 10:22:47;;;;;;;10.30;6.33;;;21.10;99.90;;;;;;1893859;75;21094;-68
2021/07/20 10:25:17;;;;;;;11.08;6.20;;;21.20;99.90;;;;;;1888746;75;21081;-67
2021/07/20 10:28:00;;;;;;;10.05;6.17;;;21.10;99.90;;;;;;1893462;74;21089;-68
2021/07/20 10:30:30;;;;;;;9.98;5.92;;;20.90;99.90;;;;;;1941278;73;21171;-67
2021/07/20 10:33:04;;;;;;;9.73;5.65;;;20.80;99.90;;;;;;1898665;75;21082;-68
2021/07/20 10:35:46;;;;;;;11.35;6.10;;;20.70;99.90;;;;;;1900363;75;21195;-68
2021/07/20 10:38:17;;;;;;;10.90;6.30;;;20.90;99.90;;;;;;1905441;75;21101;-69
2021/07/20 10:40:47;;;;;;;12.37;6.45;;;21.10;99.90;;;;;;1883884;75;21431;-67
2021/07/20 10:43:18;;;;;;;10.13;6.37;;;21.40;99.90;;;;;;1905337;75;21113;-66
2021/07/20 10:45:47;;;;;;;10.13;6.87;;;21.40;99.90;;;;;;1895177;75;21101;-68
2021/07/20 10:48:17;;;;;;;11.57;6.05;;;21.50;99.90;;;;;;1911769;75;21097;-68
2021/07/20 10:50:54;;;;;;;9.78;5.45;;;21.70;99.90;;;;;;1905164;75;21642;-66
2021/07/20 10:53:51;;;;;;;9.15;6.10;;;21.70;99.90;;;;;;1903091;75;21173;-66
2021/07/20 10:56:36;;;;;;;12.43;6.42;;;21.80;99.90;;;;;;1904452;75;21561;-66
2021/07/20 10:59:12;;;;;;;11.80;6.10;;;21.90;99.90;;;;;;1888737;75;21178;-66
2021/07/20 11:01:59;;;;;;;8.63;5.60;;;22.10;99.90;;;;;;1905400;75;21109;-67
2021/07/20 11:04:47;;;;;;;9.93;5.85;;;22.10;99.90;;;;;;1900765;75;21043;-66
2021/07/20 11:07:27;;;;;;;8.60;6.08;;;22.30;99.90;;;;;;1901478;75;21030;-65
2021/07/20 11:09:57;;;;;;;13.10;6.08;;;22.40;99.90;;;;;;1908611;75;21085;-66
2021/07/20 11:12:27;;;;;;;14.85;6.08;;;22.40;99.90;;;;;;1911309;75;21088;-66
2021/07/20 11:14:57;;;;;;;10.63;6.30;;;22.30;99.90;;;;;;1882252;75;21128;-66
2021/07/20 11:17:25;;;;;;;10.20;6.17;;;22.00;99.90;;;;;;1902509;75;21078;-66
2021/07/20 11:19:58;;;;;;;11.93;5.72;;;21.70;99.90;;;;;;1908069;75;21117;-67
2021/07/20 11:22:28;;;;;;;8.28;5.80;;;21.50;99.90;;;;;;1881623;75;21484;-66
2021/07/20 11:24:56;;;;;;;9.60;6.15;;;21.30;99.90;;;;;;1902449;75;21556;-67
2021/07/20 11:27:25;;;;;;;8.73;5.80;;;21.10;99.90;;;;;;1912116;73;21093;-66
2021/07/20 11:29:54;;;;;;;10.48;6.47;;;21.00;99.90;;;;;;1910645;75;21081;-66
2021/07/20 11:32:24;;;;;;;11.57;6.45;;;20.90;99.90;;;;;;1905307;74;21153;-67
2021/07/20 11:35:01;;;;;;;11.78;5.92;;;21.00;99.90;;;;;;1897808;75;21335;-66
2021/07/20 11:37:41;;;;;;;12.33;6.28;;;21.10;99.90;;;;;;1892896;75;21152;-66
2021/07/20 11:40:11;;;;;;;13.00;7.10;;;21.10;99.90;;;;;;1903505;73;21081;-66
2021/07/20 11:42:56;;;;;;;13.08;6.80;;;21.20;99.90;;;;;;1889258;75;21093;-67
2021/07/20 11:45:27;;;;;;;10.63;6.10;;;21.20;99.90;;;;;;1880442;75;21542;-67
2021/07/20 11:48:00;;;;;;;11.60;6.20;;;21.20;99.90;;;;;;1899601;75;21105;-67
2021/07/20 11:50:51;;;;;;;11.50;6.47;;;21.50;99.90;;;;;;1907553;75;21304;-66
2021/07/20 11:53:24;;;;;;;11.65;6.95;;;21.70;99.90;;;;;;1909446;75;22212;-67
2021/07/20 11:56:07;;;;;;;12.25;6.70;;;21.80;99.90;;;;;;1900905;75;21102;-67
2021/07/20 11:58:40;;;;;;;13.15;7.40;;;21.90;99.90;;;;;;1888529;75;21595;-67
2021/07/20 12:01:32;;;;;;;10.70;6.62;;;21.80;99.90;;;;;;1868444;75;21576;-67
2021/07/20 12:04:23;;;;;;;11.03;6.60;;;21.80;99.90;;;;;;1849926;76;21662;-67
2021/07/20 12:07:21;;;;;;;7.90;5.93;;;21.70;99.90;;;;;;1888107;75;21256;-69
2021/07/20 12:10:16;;;;;;;11.55;6.67;;;21.70;99.90;;;;;;1881214;74;21156;-69
2021/07/20 12:13:05;;;;;;;11.73;6.25;;;21.80;99.90;;;;;;1909143;75;21117;-69
2021/07/20 12:15:28;;;;;;;8.78;6.03;;;21.90;99.90;;;;;;1896288;74;21828;-69
2021/07/20 12:18:02;;;;;;;11.33;6.50;;;21.80;99.90;;;;;;1890192;75;21100;-69
2021/07/20 12:20:29;;;;;;;14.20;6.97;;;21.70;99.90;;;;;;1896348;75;21148;-69
2021/07/20 12:22:58;;;;;;;11.90;5.37;;;21.60;99.90;;;;;;1911838;75;21042;-69
2021/07/20 12:25:28;;;;;;;7.62;5.95;;;21.50;99.90;;;;;;1901789;75;21246;-70
2021/07/20 12:27:58;;;;;;;10.28;6.08;;;21.50;99.90;;;;;;1880088;75;21112;-69
2021/07/20 12:30:28;;;;;;;10.93;5.85;;;21.40;99.90;;;;;;1899445;75;21144;-70
2021/07/20 12:32:56;;;;;;;8.58;5.83;;;21.30;99.90;;;;;;1920086;73;21091;-68
2021/07/20 12:35:25;;;;;;;9.48;6.10;;;21.30;99.90;;;;;;1888412;75;21113;-70
2021/07/20 12:38:01;;;;;;;7.55;5.65;;;21.40;99.90;;;;;;1896403;75;21700;-69
2021/07/20 12:40:29;;;;;;;8.13;5.87;;;21.40;99.90;;;;;;1910170;75;21125;-70
2021/07/20 12:43:00;;;;;;;11.83;6.00;;;21.40;99.90;;;;;;1909722;75;21636;-69
2021/07/20 12:45:29;;;;;;;9.98;5.97;;;21.70;99.90;;;;;;1901057;73;21105;-69
2021/07/20 12:47:57;;;;;;;11.00;6.40;;;21.90;99.90;;;;;;1897379;73;21367;-69
2021/07/20 12:50:24;;;;;;;8.33;5.90;;;22.20;99.90;;;;;;1905575;75;21228;-68
2021/07/20 12:52:52;;;;;;;10.75;6.00;;;22.30;99.90;;;;;;1903362;75;21202;-69
2021/07/20 12:55:41;;;;;;;7.85;5.72;;;22.40;99.90;;;;;;1909560;73;21136;-70
2021/07/20 12:58:11;;;;;;;11.12;5.87;;;22.50;99.90;;;;;;1786286;80;21239;-69
2021/07/20 13:00:39;;;;;;;9.35;6.10;;;22.70;99.90;;;;;;1827439;78;21443;-69
2021/07/20 13:03:10;;;;;;;9.00;5.72;;;22.70;99.90;;;;;;1827875;78;21741;-69
2021/07/20 13:05:43;;;;;;;8.83;6.05;;;22.70;99.90;;;;;;1827433;78;21134;-68
2021/07/20 13:08:13;;;;;;;8.73;6.42;;;22.70;99.90;;;;;;1812250;78;21273;-69